sensor_id;sensor_type;location;lat;lon;timestamp;pressure;altitude;pressure_sealevel;temperature;humidity
1371;BME280;14306;49.942;11.570;2024-03-07T00:00:14;98152.72;;;2.63;100.00
1371;BME280;14306;49.942;11.570;2024-03-07T00:01:50;98151.06;;;2.62;100.00
1371;BME280;14306;49.942;11.570;2024-03-07T00:03:25;98149.44;;;2.61;100.00
1371;BME280;14306;49.942;11.570;2024-03-07T00:05:00;98148.28;;;2.57;100.00
1371;BME280;14306;49.942;11.570;2024-03-07T00:06:33;98156.69;;;2.60;100.00
1371;BME280;14306;49.942;11.570;2024-03-07T00:08:08;98161.75;;;2.62;100.00
1371;BME280;14306;49.942;11.570;2024-03-07T00:09:43;98156.13;;;2.47;100.00
1371;BME280;14306;49.942;11.570;2024-03-07T00:11:16;98155.97;;;2.42;100.00
1371;BME280;14306;49.942;11.570;2024-03-07T00:12:52;98156.94;;;2.36;100.00
1371;BME280;14306;49.942;11.570;2024-03-07T00:14:25;98154.25;;;2.13;100.00
1371;BME280;14306;49.942;11.570;2024-03-07T00:16:03;98160.50;;;2.07;100.00
1371;BME280;14306;49.942;11.570;2024-03-07T00:17:36;98172.94;;;2.01;100.00
1371;BME280;14306;49.942;11.570;2024-03-07T00:19:10;98153.53;;;1.94;100.00
1371;BME280;14306;49.942;11.570;2024-03-07T00:20:43;98160.41;;;2.02;100.00
1371;BME280;14306;49.942;11.570;2024-03-07T00:22:18;98152.75;;;2.17;100.00
1371;BME280;14306;49.942;11.570;2024-03-07T00:23:52;98163.19;;;2.30;100.00
1371;BME280;14306;49.942;11.570;2024-03-07T00:25:27;98161.22;;;2.25;100.00
1371;BME280;14306;49.942;11.570;2024-03-07T00:27:00;98154.69;;;2.21;100.00
1371;BME280;14306;49.942;11.570;2024-03-07T00:28:35;98157.50;;;2.26;100.00
1371;BME280;14306;49.942;11.570;2024-03-07T00:30:12;98161.09;;;2.20;100.00
1371;BME280;14306;49.942;11.570;2024-03-07T00:31:53;98160.63;;;2.23;100.00
1371;BME280;14306;49.942;11.570;2024-03-07T00:33:26;98154.25;;;2.24;100.00
1371;BME280;14306;49.942;11.570;2024-03-07T00:35:21;98155.06;;;2.25;100.00
1371;BME280;14306;49.942;11.570;2024-03-07T00:36:56;98149.59;;;2.20;100.00
1371;BME280;14306;49.942;11.570;2024-03-07T00:38:31;98152.38;;;2.13;100.00
1371;BME280;14306;49.942;11.570;2024-03-07T00:40:07;98152.63;;;2.12;100.00
1371;BME280;14306;49.942;11.570;2024-03-07T00:41:41;98150.06;;;2.05;100.00
1371;BME280;14306;49.942;11.570;2024-03-07T00:43:16;98155.50;;;2.10;100.00
1371;BME280;14306;49.942;11.570;2024-03-07T00:44:50;98153.56;;;2.06;100.00
1371;BME280;14306;49.942;11.570;2024-03-07T00:46:24;98145.66;;;1.99;100.00
1371;BME280;14306;49.942;11.570;2024-03-07T00:47:59;98143.41;;;1.85;100.00
1371;BME280;14306;49.942;11.570;2024-03-07T00:49:34;98148.75;;;1.85;100.00
1371;BME280;14306;49.942;11.570;2024-03-07T00:51:07;98151.56;;;1.90;100.00
1371;BME280;14306;49.942;11.570;2024-03-07T00:52:43;98145.41;;;1.89;100.00
1371;BME280;14306;49.942;11.570;2024-03-07T00:54:16;98148.91;;;1.90;100.00
1371;BME280;14306;49.942;11.570;2024-03-07T00:55:50;98141.69;;;1.79;100.00
1371;BME280;14306;49.942;11.570;2024-03-07T00:57:26;98142.47;;;1.79;100.00
1371;BME280;14306;49.942;11.570;2024-03-07T00:59:00;98138.78;;;1.80;100.00
1371;BME280;14306;49.942;11.570;2024-03-07T01:00:34;98142.63;;;1.84;100.00
1371;BME280;14306;49.942;11.570;2024-03-07T01:02:07;98144.22;;;1.74;100.00
1371;BME280;14306;49.942;11.570;2024-03-07T01:03:43;98143.53;;;1.78;100.00
1371;BME280;14306;49.942;11.570;2024-03-07T01:05:17;98137.03;;;1.63;100.00
1371;BME280;14306;49.942;11.570;2024-03-07T01:06:51;98134.34;;;1.74;100.00
1371;BME280;14306;49.942;11.570;2024-03-07T01:08:24;98141.88;;;1.66;100.00
1371;BME280;14306;49.942;11.570;2024-03-07T01:10:00;98135.34;;;1.50;100.00
1371;BME280;14306;49.942;11.570;2024-03-07T01:11:36;98132.59;;;1.57;100.00
1371;BME280;14306;49.942;11.570;2024-03-07T01:13:10;98117.69;;;1.38;100.00
1371;BME280;14306;49.942;11.570;2024-03-07T01:14:51;98127.34;;;1.50;100.00
1371;BME280;14306;49.942;11.570;2024-03-07T01:16:26;98131.53;;;1.46;100.00
1371;BME280;14306;49.942;11.570;2024-03-07T01:18:00;98129.09;;;1.45;100.00
1371;BME280;14306;49.942;11.570;2024-03-07T01:19:37;98137.25;;;1.61;100.00
1371;BME280;14306;49.942;11.570;2024-03-07T01:21:11;98123.41;;;1.53;100.00
1371;BME280;14306;49.942;11.570;2024-03-07T01:22:46;98122.34;;;1.42;100.00
1371;BME280;14306;49.942;11.570;2024-03-07T01:24:21;98128.63;;;1.48;100.00
1371;BME280;14306;49.942;11.570;2024-03-07T01:25:56;98125.09;;;1.36;100.00
1371;BME280;14306;49.942;11.570;2024-03-07T01:27:30;98121.97;;;1.27;100.00
1371;BME280;14306;49.942;11.570;2024-03-07T01:29:04;98115.22;;;1.25;100.00
1371;BME280;14306;49.942;11.570;2024-03-07T01:30:40;98125.78;;;1.31;100.00
1371;BME280;14306;49.942;11.570;2024-03-07T01:32:13;98127.81;;;1.47;100.00
1371;BME280;14306;49.942;11.570;2024-03-07T01:33:48;98124.91;;;1.49;100.00
1371;BME280;14306;49.942;11.570;2024-03-07T01:35:23;98130.53;;;1.70;100.00
1371;BME280;14306;49.942;11.570;2024-03-07T01:36:58;98125.75;;;1.61;100.00
1371;BME280;14306;49.942;11.570;2024-03-07T01:38:32;98119.34;;;1.62;100.00
1371;BME280;14306;49.942;11.570;2024-03-07T01:40:07;98112.63;;;1.59;100.00
1371;BME280;14306;49.942;11.570;2024-03-07T01:41:42;98114.97;;;1.56;100.00
1371;BME280;14306;49.942;11.570;2024-03-07T01:43:16;98115.19;;;1.54;100.00
1371;BME280;14306;49.942;11.570;2024-03-07T01:44:50;98113.22;;;1.61;100.00
1371;BME280;14306;49.942;11.570;2024-03-07T01:46:24;98115.41;;;1.53;100.00
1371;BME280;14306;49.942;11.570;2024-03-07T01:47:59;98109.69;;;1.49;100.00
1371;BME280;14306;49.942;11.570;2024-03-07T01:49:33;98098.56;;;1.41;100.00
1371;BME280;14306;49.942;11.570;2024-03-07T01:51:09;98099.25;;;1.36;100.00
1371;BME280;14306;49.942;11.570;2024-03-07T01:52:42;98098.53;;;1.29;100.00
1371;BME280;14306;49.942;11.570;2024-03-07T01:54:16;98107.63;;;1.40;100.00
1371;BME280;14306;49.942;11.570;2024-03-07T01:55:50;98091.22;;;1.25;100.00
1371;BME280;14306;49.942;11.570;2024-03-07T01:57:26;98098.13;;;1.44;100.00
1371;BME280;14306;49.942;11.570;2024-03-07T01:59:01;98096.94;;;1.40;100.00
1371;BME280;14306;49.942;11.570;2024-03-07T02:00:35;98086.97;;;1.47;100.00
1371;BME280;14306;49.942;11.570;2024-03-07T02:02:09;98097.41;;;1.37;100.00
1371;BME280;14306;49.942;11.570;2024-03-07T02:03:44;98080.06;;;1.28;100.00
1371;BME280;14306;49.942;11.570;2024-03-07T02:05:17;98082.53;;;1.29;100.00
1371;BME280;14306;49.942;11.570;2024-03-07T02:06:53;98084.50;;;1.34;100.00
1371;BME280;14306;49.942;11.570;2024-03-07T02:08:28;98083.34;;;1.30;100.00
1371;BME280;14306;49.942;11.570;2024-03-07T02:10:05;98082.53;;;1.29;100.00
1371;BME280;14306;49.942;11.570;2024-03-07T02:11:39;98079.50;;;1.26;100.00
1371;BME280;14306;49.942;11.570;2024-03-07T02:13:13;98081.81;;;1.22;100.00
1371;BME280;14306;49.942;11.570;2024-03-07T02:14:47;98078.44;;;1.15;100.00
1371;BME280;14306;49.942;11.570;2024-03-07T02:16:21;98077.75;;;1.20;100.00
1371;BME280;14306;49.942;11.570;2024-03-07T02:17:54;98071.72;;;1.24;100.00
1371;BME280;14306;49.942;11.570;2024-03-07T02:19:30;98068.84;;;1.26;100.00
1371;BME280;14306;49.942;11.570;2024-03-07T02:21:09;98065.22;;;1.20;100.00
1371;BME280;14306;49.942;11.570;2024-03-07T02:22:44;98068.94;;;1.19;100.00
1371;BME280;14306;49.942;11.570;2024-03-07T02:24:18;98068.66;;;1.09;100.00
1371;BME280;14306;49.942;11.570;2024-03-07T02:25:51;98067.63;;;1.10;100.00
1371;BME280;14306;49.942;11.570;2024-03-07T02:27:26;98063.84;;;1.18;100.00
1371;BME280;14306;49.942;11.570;2024-03-07T02:28:59;98058.09;;;1.03;100.00
1371;BME280;14306;49.942;11.570;2024-03-07T02:30:34;98063.66;;;1.01;100.00
1371;BME280;14306;49.942;11.570;2024-03-07T02:32:08;98051.50;;;1.05;100.00
1371;BME280;14306;49.942;11.570;2024-03-07T02:33:42;98048.63;;;1.07;100.00
1371;BME280;14306;49.942;11.570;2024-03-07T02:35:17;98051.59;;;0.99;100.00
1371;BME280;14306;49.942;11.570;2024-03-07T02:36:52;98051.56;;;0.87;100.00
1371;BME280;14306;49.942;11.570;2024-03-07T02:38:27;98052.81;;;0.85;100.00
1371;BME280;14306;49.942;11.570;2024-03-07T02:40:02;98050.56;;;0.70;100.00
1371;BME280;14306;49.942;11.570;2024-03-07T02:41:35;98048.00;;;0.64;100.00
1371;BME280;14306;49.942;11.570;2024-03-07T02:43:10;98054.94;;;0.65;100.00
1371;BME280;14306;49.942;11.570;2024-03-07T02:44:44;98045.41;;;0.57;100.00
1371;BME280;14306;49.942;11.570;2024-03-07T02:46:18;98049.56;;;0.53;100.00
1371;BME280;14306;49.942;11.570;2024-03-07T02:47:53;98048.31;;;0.56;100.00
1371;BME280;14306;49.942;11.570;2024-03-07T02:49:27;98049.28;;;0.43;100.00
1371;BME280;14306;49.942;11.570;2024-03-07T02:51:02;98044.91;;;0.49;100.00
1371;BME280;14306;49.942;11.570;2024-03-07T02:52:37;98045.06;;;0.36;100.00
1371;BME280;14306;49.942;11.570;2024-03-07T02:54:12;98043.75;;;0.27;100.00
1371;BME280;14306;49.942;11.570;2024-03-07T02:55:45;98037.34;;;0.16;100.00
1371;BME280;14306;49.942;11.570;2024-03-07T02:57:19;98029.69;;;0.01;100.00
1371;BME280;14306;49.942;11.570;2024-03-07T02:58:53;98020.53;;;-0.03;100.00
1371;BME280;14306;49.942;11.570;2024-03-07T03:00:28;98027.50;;;-0.02;100.00
1371;BME280;14306;49.942;11.570;2024-03-07T03:02:02;98037.19;;;-0.07;100.00
1371;BME280;14306;49.942;11.570;2024-03-07T03:03:37;98038.25;;;-0.15;100.00
1371;BME280;14306;49.942;11.570;2024-03-07T03:05:15;98031.75;;;-0.19;100.00
1371;BME280;14306;49.942;11.570;2024-03-07T03:06:49;98033.44;;;-0.24;100.00
1371;BME280;14306;49.942;11.570;2024-03-07T03:08:25;98033.44;;;-0.24;100.00
1371;BME280;14306;49.942;11.570;2024-03-07T03:09:58;98028.97;;;-0.24;100.00
1371;BME280;14306;49.942;11.570;2024-03-07T03:11:33;98031.63;;;-0.24;100.00
1371;BME280;14306;49.942;11.570;2024-03-07T03:13:07;98021.84;;;-0.30;100.00
1371;BME280;14306;49.942;11.570;2024-03-07T03:14:41;98027.56;;;-0.26;100.00
1371;BME280;14306;49.942;11.570;2024-03-07T03:16:15;98024.50;;;-0.30;100.00
1371;BME280;14306;49.942;11.570;2024-03-07T03:17:59;98025.31;;;-0.29;100.00
1371;BME280;14306;49.942;11.570;2024-03-07T03:19:33;98018.69;;;-0.38;100.00
1371;BME280;14306;49.942;11.570;2024-03-07T03:21:07;98014.84;;;-0.42;100.00
1371;BME280;14306;49.942;11.570;2024-03-07T03:22:41;98021.34;;;-0.38;100.00
1371;BME280;14306;49.942;11.570;2024-03-07T03:24:18;98021.56;;;-0.40;100.00
1371;BME280;14306;49.942;11.570;2024-03-07T03:25:52;98015.34;;;-0.52;100.00
1371;BME280;14306;49.942;11.570;2024-03-07T03:27:26;98012.22;;;-0.49;100.00
1371;BME280;14306;49.942;11.570;2024-03-07T03:28:59;98014.94;;;-0.55;100.00
1371;BME280;14306;49.942;11.570;2024-03-07T03:30:34;98012.91;;;-0.60;100.00
1371;BME280;14306;49.942;11.570;2024-03-07T03:32:08;98011.22;;;-0.54;100.00
1371;BME280;14306;49.942;11.570;2024-03-07T03:33:42;98015.59;;;-0.60;100.00
1371;BME280;14306;49.942;11.570;2024-03-07T03:35:15;98012.19;;;-0.67;100.00
1371;BME280;14306;49.942;11.570;2024-03-07T03:36:50;98019.88;;;-0.59;100.00
1371;BME280;14306;49.942;11.570;2024-03-07T03:38:23;98013.38;;;-0.63;100.00
1371;BME280;14306;49.942;11.570;2024-03-07T03:39:59;98009.91;;;-0.63;100.00
1371;BME280;14306;49.942;11.570;2024-03-07T03:41:33;98024.03;;;-0.63;100.00
1371;BME280;14306;49.942;11.570;2024-03-07T03:43:08;98015.22;;;-0.63;100.00
1371;BME280;14306;49.942;11.570;2024-03-07T03:44:42;98008.72;;;-0.67;100.00
1371;BME280;14306;49.942;11.570;2024-03-07T03:46:16;98001.66;;;-0.80;100.00
1371;BME280;14306;49.942;11.570;2024-03-07T03:47:50;97993.09;;;-0.82;100.00
1371;BME280;14306;49.942;11.570;2024-03-07T03:49:25;98004.94;;;-0.78;100.00
1371;BME280;14306;49.942;11.570;2024-03-07T03:50:58;98009.63;;;-0.80;100.00
1371;BME280;14306;49.942;11.570;2024-03-07T03:52:33;98006.81;;;-0.85;100.00
1371;BME280;14306;49.942;11.570;2024-03-07T03:54:07;98016.63;;;-0.85;100.00
1371;BME280;14306;49.942;11.570;2024-03-07T03:55:44;98007.19;;;-0.81;100.00
1371;BME280;14306;49.942;11.570;2024-03-07T03:57:17;98007.66;;;-0.84;100.00
1371;BME280;14306;49.942;11.570;2024-03-07T03:58:51;98001.72;;;-0.86;100.00
1371;BME280;14306;49.942;11.570;2024-03-07T04:00:26;98007.59;;;-0.78;100.00
1371;BME280;14306;49.942;11.570;2024-03-07T04:01:59;98000.13;;;-0.69;100.00
1371;BME280;14306;49.942;11.570;2024-03-07T04:03:33;98011.78;;;-0.46;100.00
1371;BME280;14306;49.942;11.570;2024-03-07T04:05:07;98006.94;;;-0.31;100.00
1371;BME280;14306;49.942;11.570;2024-03-07T04:06:41;97935.09;;;-0.67;100.00
1371;BME280;14306;49.942;11.570;2024-03-07T04:08:16;97983.78;;;-0.12;100.00
1371;BME280;14306;49.942;11.570;2024-03-07T04:09:52;97999.22;;;0.16;100.00
1371;BME280;14306;49.942;11.570;2024-03-07T04:11:27;97999.16;;;0.22;100.00
1371;BME280;14306;49.942;11.570;2024-03-07T04:13:01;97996.25;;;0.24;100.00
1371;BME280;14306;49.942;11.570;2024-03-07T04:14:37;97996.78;;;0.32;100.00
1371;BME280;14306;49.942;11.570;2024-03-07T04:16:10;98001.78;;;0.40;100.00
1371;BME280;14306;49.942;11.570;2024-03-07T04:17:44;97998.47;;;0.45;100.00
1371;BME280;14306;49.942;11.570;2024-03-07T04:19:20;98003.47;;;0.53;100.00
1371;BME280;14306;49.942;11.570;2024-03-07T04:20:54;98004.03;;;0.55;100.00
1371;BME280;14306;49.942;11.570;2024-03-07T04:22:29;98014.03;;;0.59;100.00
1371;BME280;14306;49.942;11.570;2024-03-07T04:24:02;98016.78;;;0.53;100.00
1371;BME280;14306;49.942;11.570;2024-03-07T04:25:36;98011.25;;;0.54;100.00
1371;BME280;14306;49.942;11.570;2024-03-07T04:27:12;98017.47;;;0.48;100.00
1371;BME280;14306;49.942;11.570;2024-03-07T04:28:45;98018.94;;;0.44;100.00
1371;BME280;14306;49.942;11.570;2024-03-07T04:30:20;98017.41;;;0.37;100.00
1371;BME280;14306;49.942;11.570;2024-03-07T04:31:53;98023.50;;;0.26;100.00
1371;BME280;14306;49.942;11.570;2024-03-07T04:33:27;98006.41;;;0.15;100.00
1371;BME280;14306;49.942;11.570;2024-03-07T04:35:02;98013.44;;;0.09;100.00
1371;BME280;14306;49.942;11.570;2024-03-07T04:36:36;98003.81;;;0.08;100.00
1371;BME280;14306;49.942;11.570;2024-03-07T04:38:10;98002.34;;;0.13;100.00
1371;BME280;14306;49.942;11.570;2024-03-07T04:39:48;98008.03;;;0.16;100.00
1371;BME280;14306;49.942;11.570;2024-03-07T04:41:22;98011.19;;;0.25;100.00
1371;BME280;14306;49.942;11.570;2024-03-07T04:42:57;98009.88;;;0.16;100.00
1371;BME280;14306;49.942;11.570;2024-03-07T04:44:31;98008.78;;;0.23;100.00
1371;BME280;14306;49.942;11.570;2024-03-07T04:46:05;98000.78;;;0.23;100.00
1371;BME280;14306;49.942;11.570;2024-03-07T04:47:40;98011.13;;;0.31;100.00
1371;BME280;14306;49.942;11.570;2024-03-07T04:49:15;98010.50;;;0.47;100.00
1371;BME280;14306;49.942;11.570;2024-03-07T04:50:48;98005.69;;;0.56;100.00
1371;BME280;14306;49.942;11.570;2024-03-07T04:52:22;97996.69;;;0.68;100.00
1371;BME280;14306;49.942;11.570;2024-03-07T04:53:55;98012.72;;;0.80;100.00
1371;BME280;14306;49.942;11.570;2024-03-07T04:55:29;98010.06;;;0.91;100.00
1371;BME280;14306;49.942;11.570;2024-03-07T04:57:04;98018.00;;;1.09;100.00
1371;BME280;14306;49.942;11.570;2024-03-07T04:58:39;98001.78;;;1.22;100.00
1371;BME280;14306;49.942;11.570;2024-03-07T05:00:14;98011.81;;;1.38;100.00
1371;BME280;14306;49.942;11.570;2024-03-07T05:01:50;98016.66;;;1.41;100.00
1371;BME280;14306;49.942;11.570;2024-03-07T05:03:24;98025.25;;;1.55;100.00
1371;BME280;14306;49.942;11.570;2024-03-07T05:05:00;98023.41;;;1.55;100.00
1371;BME280;14306;49.942;11.570;2024-03-07T05:06:34;98032.34;;;1.61;100.00
1371;BME280;14306;49.942;11.570;2024-03-07T05:08:08;98027.69;;;1.56;100.00
1371;BME280;14306;49.942;11.570;2024-03-07T05:09:42;98040.91;;;1.51;100.00
1371;BME280;14306;49.942;11.570;2024-03-07T05:11:16;98041.59;;;1.47;100.00
1371;BME280;14306;49.942;11.570;2024-03-07T05:12:50;98041.94;;;1.39;100.00
1371;BME280;14306;49.942;11.570;2024-03-07T05:14:25;98047.72;;;1.36;100.00
1371;BME280;14306;49.942;11.570;2024-03-07T05:15:58;98049.84;;;1.45;100.00
1371;BME280;14306;49.942;11.570;2024-03-07T05:17:32;98048.22;;;1.44;100.00
1371;BME280;14306;49.942;11.570;2024-03-07T05:19:09;98047.75;;;1.47;100.00
1371;BME280;14306;49.942;11.570;2024-03-07T05:20:42;98043.38;;;1.53;100.00
1371;BME280;14306;49.942;11.570;2024-03-07T05:22:16;98044.28;;;1.58;100.00
1371;BME280;14306;49.942;11.570;2024-03-07T05:23:51;98036.41;;;1.63;100.00
1371;BME280;14306;49.942;11.570;2024-03-07T05:25:25;98047.31;;;1.73;100.00
1371;BME280;14306;49.942;11.570;2024-03-07T05:26:59;98051.13;;;1.66;100.00
1371;BME280;14306;49.942;11.570;2024-03-07T05:28:33;98047.06;;;1.63;100.00
1371;BME280;14306;49.942;11.570;2024-03-07T05:30:09;98050.22;;;1.72;100.00
1371;BME280;14306;49.942;11.570;2024-03-07T05:31:45;98049.53;;;1.76;100.00
1371;BME280;14306;49.942;11.570;2024-03-07T05:33:19;98049.53;;;1.76;100.00
1371;BME280;14306;49.942;11.570;2024-03-07T05:34:55;98050.19;;;1.83;100.00
1371;BME280;14306;49.942;11.570;2024-03-07T05:36:30;98048.59;;;1.82;100.00
1371;BME280;14306;49.942;11.570;2024-03-07T05:38:03;98064.25;;;1.90;100.00
1371;BME280;14306;49.942;11.570;2024-03-07T05:39:37;98058.13;;;1.90;100.00
1371;BME280;14306;49.942;11.570;2024-03-07T05:41:11;98060.44;;;1.98;100.00
1371;BME280;14306;49.942;11.570;2024-03-07T05:42:45;98062.75;;;1.83;100.00
1371;BME280;14306;49.942;11.570;2024-03-07T05:44:19;98053.56;;;1.90;100.00
1371;BME280;14306;49.942;11.570;2024-03-07T05:45:54;98061.00;;;2.00;100.00
1371;BME280;14306;49.942;11.570;2024-03-07T05:47:28;98062.06;;;1.99;100.00
1371;BME280;14306;49.942;11.570;2024-03-07T05:49:02;98062.97;;;2.04;100.00
1371;BME280;14306;49.942;11.570;2024-03-07T05:50:36;98063.53;;;2.06;100.00
1371;BME280;14306;49.942;11.570;2024-03-07T05:52:09;98053.91;;;2.17;100.00
1371;BME280;14306;49.942;11.570;2024-03-07T05:53:44;98055.31;;;2.19;100.00
1371;BME280;14306;49.942;11.570;2024-03-07T05:55:17;98059.81;;;2.19;100.00
1371;BME280;14306;49.942;11.570;2024-03-07T05:56:52;98074.47;;;2.16;100.00
1371;BME280;14306;49.942;11.570;2024-03-07T05:58:25;98061.22;;;2.21;100.00
1371;BME280;14306;49.942;11.570;2024-03-07T05:59:59;98069.78;;;2.35;100.00
1371;BME280;14306;49.942;11.570;2024-03-07T06:01:34;98063.19;;;2.37;100.00
1371;BME280;14306;49.942;11.570;2024-03-07T06:03:09;98070.69;;;2.52;100.00
1371;BME280;14306;49.942;11.570;2024-03-07T06:04:43;98071.59;;;2.57;100.00
1371;BME280;14306;49.942;11.570;2024-03-07T06:06:18;98071.69;;;2.62;100.00
1371;BME280;14306;49.942;11.570;2024-03-07T06:07:54;98080.25;;;2.76;100.00
1371;BME280;14306;49.942;11.570;2024-03-07T06:09:29;98076.88;;;2.80;100.00
1371;BME280;14306;49.942;11.570;2024-03-07T06:11:02;98090.72;;;2.66;100.00
1371;BME280;14306;49.942;11.570;2024-03-07T06:12:37;98083.75;;;2.76;100.00
1371;BME280;14306;49.942;11.570;2024-03-07T06:14:20;98084.44;;;2.72;100.00
1371;BME280;14306;49.942;11.570;2024-03-07T06:15:55;98062.59;;;2.75;100.00
1371;BME280;14306;49.942;11.570;2024-03-07T06:17:30;98043.06;;;2.74;100.00
1371;BME280;14306;49.942;11.570;2024-03-07T06:19:05;98093.41;;;3.05;100.00
1371;BME280;14306;49.942;11.570;2024-03-07T06:20:43;98091.38;;;3.12;100.00
1371;BME280;14306;49.942;11.570;2024-03-07T06:22:17;98099.19;;;3.14;100.00
1371;BME280;14306;49.942;11.570;2024-03-07T06:23:50;98099.13;;;3.25;100.00
1371;BME280;14306;49.942;11.570;2024-03-07T06:25:32;98088.91;;;3.22;100.00
1371;BME280;14306;49.942;11.570;2024-03-07T06:27:07;98098.81;;;3.38;100.00
1371;BME280;14306;49.942;11.570;2024-03-07T06:28:49;98085.63;;;3.48;100.00
1371;BME280;14306;49.942;11.570;2024-03-07T06:30:23;98094.13;;;3.45;100.00
1371;BME280;14306;49.942;11.570;2024-03-07T06:31:57;98095.44;;;3.59;100.00
1371;BME280;14306;49.942;11.570;2024-03-07T06:33:33;98093.66;;;3.65;100.00
1371;BME280;14306;49.942;11.570;2024-03-07T06:35:08;98095.91;;;3.73;100.00
1371;BME280;14306;49.942;11.570;2024-03-07T06:36:41;98091.09;;;3.86;100.00
1371;BME280;14306;49.942;11.570;2024-03-07T06:38:15;98099.28;;;3.63;100.00
1371;BME280;14306;49.942;11.570;2024-03-07T06:39:49;98094.47;;;3.82;100.00
1371;BME280;14306;49.942;11.570;2024-03-07T06:41:23;98104.63;;;3.96;100.00
1371;BME280;14306;49.942;11.570;2024-03-07T06:42:58;98104.59;;;4.13;100.00
1371;BME280;14306;49.942;11.570;2024-03-07T06:44:32;98111.69;;;4.19;100.00
1371;BME280;14306;49.942;11.570;2024-03-07T06:46:07;98101.22;;;4.01;100.00
1371;BME280;14306;49.942;11.570;2024-03-07T06:47:41;98113.53;;;4.02;100.00
1371;BME280;14306;49.942;11.570;2024-03-07T06:49:18;98107.75;;;4.27;100.00
1371;BME280;14306;49.942;11.570;2024-03-07T06:50:53;98107.44;;;4.23;100.00
1371;BME280;14306;49.942;11.570;2024-03-07T06:52:28;98105.59;;;4.45;100.00
1371;BME280;14306;49.942;11.570;2024-03-07T06:54:01;98108.03;;;4.47;100.00
1371;BME280;14306;49.942;11.570;2024-03-07T06:55:36;98097.94;;;4.75;100.00
1371;BME280;14306;49.942;11.570;2024-03-07T06:57:11;98096.50;;;4.89;100.00
1371;BME280;14306;49.942;11.570;2024-03-07T06:58:46;98114.66;;;4.82;100.00
1371;BME280;14306;49.942;11.570;2024-03-07T07:00:19;98101.66;;;4.69;100.00
1371;BME280;14306;49.942;11.570;2024-03-07T07:01:54;98107.78;;;4.70;100.00
1371;BME280;14306;49.942;11.570;2024-03-07T07:03:27;98119.25;;;5.30;100.00
1371;BME280;14306;49.942;11.570;2024-03-07T07:05:04;98118.63;;;5.23;100.00
1371;BME280;14306;49.942;11.570;2024-03-07T07:06:40;98102.31;;;5.29;100.00
1371;BME280;14306;49.942;11.570;2024-03-07T07:08:15;98128.56;;;5.49;100.00
1371;BME280;14306;49.942;11.570;2024-03-07T07:09:50;98120.53;;;5.49;100.00
1371;BME280;14306;49.942;11.570;2024-03-07T07:11:26;98125.25;;;5.37;100.00
1371;BME280;14306;49.942;11.570;2024-03-07T07:13:06;98120.78;;;5.47;100.00
1371;BME280;14306;49.942;11.570;2024-03-07T07:14:40;98128.00;;;5.73;100.00
1371;BME280;14306;49.942;11.570;2024-03-07T07:16:15;98120.56;;;5.54;100.00
1371;BME280;14306;49.942;11.570;2024-03-07T07:17:51;98123.91;;;5.13;100.00
1371;BME280;14306;49.942;11.570;2024-03-07T07:19:25;98123.75;;;5.51;100.00
1371;BME280;14306;49.942;11.570;2024-03-07T07:21:04;98115.09;;;5.70;100.00
1371;BME280;14306;49.942;11.570;2024-03-07T07:22:45;98121.28;;;5.71;100.00
1371;BME280;14306;49.942;11.570;2024-03-07T07:24:19;98122.06;;;5.40;100.00
1371;BME280;14306;49.942;11.570;2024-03-07T07:25:56;98116.06;;;5.33;100.00
1371;BME280;14306;49.942;11.570;2024-03-07T07:27:31;98123.81;;;5.56;100.00
1371;BME280;14306;49.942;11.570;2024-03-07T07:29:05;98126.13;;;5.74;100.00
1371;BME280;14306;49.942;11.570;2024-03-07T07:30:39;98114.13;;;6.13;100.00
1371;BME280;14306;49.942;11.570;2024-03-07T07:32:18;98124.91;;;6.18;100.00
1371;BME280;14306;49.942;11.570;2024-03-07T07:33:52;98123.53;;;6.10;100.00
1371;BME280;14306;49.942;11.570;2024-03-07T07:35:26;98132.13;;;6.12;100.00
1371;BME280;14306;49.942;11.570;2024-03-07T07:37:01;98123.56;;;5.84;100.00
1371;BME280;14306;49.942;11.570;2024-03-07T07:38:36;98117.88;;;6.12;100.00
1371;BME280;14306;49.942;11.570;2024-03-07T07:40:12;98118.66;;;6.49;100.00
1371;BME280;14306;49.942;11.570;2024-03-07T07:41:47;98117.50;;;6.86;100.00
1371;BME280;14306;49.942;11.570;2024-03-07T07:43:22;98122.44;;;7.09;100.00
1371;BME280;14306;49.942;11.570;2024-03-07T07:45:10;98123.13;;;7.61;100.00
1371;BME280;14306;49.942;11.570;2024-03-07T07:46:44;98125.88;;;7.91;100.00
1371;BME280;14306;49.942;11.570;2024-03-07T07:48:18;98121.53;;;8.20;100.00
1371;BME280;14306;49.942;11.570;2024-03-07T07:49:54;98108.84;;;8.56;100.00
1371;BME280;14306;49.942;11.570;2024-03-07T07:51:27;98110.94;;;8.79;100.00
1371;BME280;14306;49.942;11.570;2024-03-07T07:53:03;98101.88;;;8.35;100.00
1371;BME280;14306;49.942;11.570;2024-03-07T07:54:42;98100.78;;;8.06;100.00
1371;BME280;14306;49.942;11.570;2024-03-07T07:56:16;98098.66;;;8.28;100.00
1371;BME280;14306;49.942;11.570;2024-03-07T07:57:52;98099.16;;;8.30;100.00
1371;BME280;14306;49.942;11.570;2024-03-07T07:59:26;98101.59;;;8.11;100.00
1371;BME280;14306;49.942;11.570;2024-03-07T08:01:01;98103.50;;;8.31;100.00
1371;BME280;14306;49.942;11.570;2024-03-07T08:02:36;98078.38;;;8.20;100.00
1371;BME280;14306;49.942;11.570;2024-03-07T08:04:09;98100.81;;;8.21;100.00
1371;BME280;14306;49.942;11.570;2024-03-07T08:05:44;98095.69;;;8.25;100.00
1371;BME280;14306;49.942;11.570;2024-03-07T08:07:19;98096.19;;;8.32;100.00
1371;BME280;14306;49.942;11.570;2024-03-07T08:08:54;98099.31;;;9.42;100.00
1371;BME280;14306;49.942;11.570;2024-03-07T08:10:28;98116.41;;;10.95;100.00
1371;BME280;14306;49.942;11.570;2024-03-07T08:12:02;98103.84;;;11.04;100.00
1371;BME280;14306;49.942;11.570;2024-03-07T08:13:39;98092.09;;;10.38;100.00
1371;BME280;14306;49.942;11.570;2024-03-07T08:15:13;98084.81;;;10.05;100.00
1371;BME280;14306;49.942;11.570;2024-03-07T08:16:49;98095.03;;;10.13;100.00
1371;BME280;14306;49.942;11.570;2024-03-07T08:18:23;98085.44;;;11.01;100.00
1371;BME280;14306;49.942;11.570;2024-03-07T08:19:58;98120.31;;;13.02;100.00